sensor_id;sensor_type;location;lat;lon;timestamp;pressure;altitude;pressure_sealevel;temperature;humidity
41334;BME280;27078;46.428;6.256;2023-04-02T00:00:26;96037.16;;;4.42;100.00
41334;BME280;27078;46.428;6.256;2023-04-02T00:08:15;96033.25;;;4.23;100.00
41334;BME280;27078;46.428;6.256;2023-04-02T00:10:47;96040.75;;;4.28;100.00
41334;BME280;27078;46.428;6.256;2023-04-02T00:15:43;96037.59;;;4.36;100.00
41334;BME280;27078;46.428;6.256;2023-04-02T00:18:20;96041.59;;;4.28;100.00
41334;BME280;27078;46.428;6.256;2023-04-02T00:20:50;96037.63;;;4.10;100.00
41334;BME280;27078;46.428;6.256;2023-04-02T00:23:17;96036.16;;;4.06;100.00
41334;BME280;27078;46.428;6.256;2023-04-02T00:25:43;96033.97;;;4.25;100.00
41334;BME280;27078;46.428;6.256;2023-04-02T00:28:21;96041.81;;;4.25;100.00
41334;BME280;27078;46.428;6.256;2023-04-02T00:30:57;96046.72;;;4.17;100.00
41334;BME280;27078;46.428;6.256;2023-04-02T00:33:26;96043.50;;;4.01;100.00
41334;BME280;27078;46.428;6.256;2023-04-02T00:35:53;96047.91;;;3.87;100.00
41334;BME280;27078;46.428;6.256;2023-04-02T00:40:51;96049.16;;;3.82;100.00
41334;BME280;27078;46.428;6.256;2023-04-02T00:43:18;96050.28;;;3.78;100.00
41334;BME280;27078;46.428;6.256;2023-04-02T00:45:46;96060.44;;;3.82;100.00
41334;BME280;27078;46.428;6.256;2023-04-02T00:50:58;96047.78;;;3.76;100.00
41334;BME280;27078;46.428;6.256;2023-04-02T00:53:28;96048.75;;;3.75;100.00
41334;BME280;27078;46.428;6.256;2023-04-02T00:55:56;96046.22;;;3.74;100.00
41334;BME280;27078;46.428;6.256;2023-04-02T00:58:27;96043.69;;;3.85;100.00
41334;BME280;27078;46.428;6.256;2023-04-02T01:00:54;96046.31;;;3.98;100.00
41334;BME280;27078;46.428;6.256;2023-04-02T01:05:58;96042.47;;;3.91;100.00
41334;BME280;27078;46.428;6.256;2023-04-02T01:13:41;96034.84;;;3.75;100.00
41334;BME280;27078;46.428;6.256;2023-04-02T01:21:30;96042.47;;;3.65;100.00
41334;BME280;27078;46.428;6.256;2023-04-02T01:24:05;96040.75;;;3.64;100.00
41334;BME280;27078;46.428;6.256;2023-04-02T01:26:55;96052.16;;;3.63;100.00
41334;BME280;27078;46.428;6.256;2023-04-02T01:29:39;96059.19;;;3.62;100.00
41334;BME280;27078;46.428;6.256;2023-04-02T01:32:12;96049.88;;;3.58;100.00
41334;BME280;27078;46.428;6.256;2023-04-02T01:34:39;96048.41;;;3.54;100.00
41334;BME280;27078;46.428;6.256;2023-04-02T01:45:02;96057.31;;;3.64;100.00
41334;BME280;27078;46.428;6.256;2023-04-02T01:47:28;96069.94;;;3.58;100.00
41334;BME280;27078;46.428;6.256;2023-04-02T01:50:21;96059.16;;;3.50;100.00
41334;BME280;27078;46.428;6.256;2023-04-02T01:52:47;96058.94;;;3.53;100.00
41334;BME280;27078;46.428;6.256;2023-04-02T01:55:17;96065.44;;;3.60;100.00
41334;BME280;27078;46.428;6.256;2023-04-02T01:57:46;96073.38;;;3.71;100.00
41334;BME280;27078;46.428;6.256;2023-04-02T02:00:15;96071.50;;;3.73;100.00
41334;BME280;27078;46.428;6.256;2023-04-02T02:02:42;96069.31;;;3.80;100.00
41334;BME280;27078;46.428;6.256;2023-04-02T02:05:15;96069.41;;;4.04;100.00
41334;BME280;27078;46.428;6.256;2023-04-02T02:07:41;96068.25;;;3.95;100.00
41334;BME280;27078;46.428;6.256;2023-04-02T02:10:16;96065.47;;;3.98;100.00
41334;BME280;27078;46.428;6.256;2023-04-02T02:12:43;96076.31;;;4.05;100.00
41334;BME280;27078;46.428;6.256;2023-04-02T02:15:18;96069.41;;;4.17;100.00
41334;BME280;27078;46.428;6.256;2023-04-02T02:17:44;96078.41;;;4.25;100.00
41334;BME280;27078;46.428;6.256;2023-04-02T02:20:11;96077.13;;;4.31;100.00
41334;BME280;27078;46.428;6.256;2023-04-02T02:22:48;96078.69;;;4.34;100.00
41334;BME280;27078;46.428;6.256;2023-04-02T02:25:17;96075.34;;;4.32;100.00
41334;BME280;27078;46.428;6.256;2023-04-02T02:27:54;96081.63;;;4.29;100.00
41334;BME280;27078;46.428;6.256;2023-04-02T02:30:32;96081.50;;;4.43;100.00
41334;BME280;27078;46.428;6.256;2023-04-02T02:33:02;96080.22;;;4.62;100.00
41334;BME280;27078;46.428;6.256;2023-04-02T02:35:37;96084.91;;;4.69;100.00
41334;BME280;27078;46.428;6.256;2023-04-02T02:40:55;96087.53;;;4.57;100.00
41334;BME280;27078;46.428;6.256;2023-04-02T02:43:22;96082.97;;;4.47;100.00
41334;BME280;27078;46.428;6.256;2023-04-02T02:45:50;96084.94;;;4.44;100.00
41334;BME280;27078;46.428;6.256;2023-04-02T02:48:29;96081.31;;;4.34;100.00
41334;BME280;27078;46.428;6.256;2023-04-02T02:50:58;96084.56;;;4.24;100.00
41334;BME280;27078;46.428;6.256;2023-04-02T02:53:25;96077.78;;;4.22;100.00
41334;BME280;27078;46.428;6.256;2023-04-02T02:55:55;96080.50;;;4.20;100.00
41334;BME280;27078;46.428;6.256;2023-04-02T02:58:27;96085.00;;;4.18;100.00
41334;BME280;27078;46.428;6.256;2023-04-02T03:00:55;96084.66;;;4.23;100.00
41334;BME280;27078;46.428;6.256;2023-04-02T03:03:23;96089.06;;;4.35;100.00
41334;BME280;27078;46.428;6.256;2023-04-02T03:05:56;96084.66;;;4.36;100.00
41334;BME280;27078;46.428;6.256;2023-04-02T03:08:35;96084.47;;;4.26;100.00
41334;BME280;27078;46.428;6.256;2023-04-02T03:11:10;96087.69;;;4.29;100.00
41334;BME280;27078;46.428;6.256;2023-04-02T03:13:39;96093.03;;;4.41;100.00
41334;BME280;27078;46.428;6.256;2023-04-02T03:16:19;96096.47;;;4.41;100.00
41334;BME280;27078;46.428;6.256;2023-04-02T03:22:01;96102.44;;;4.31;100.00
41334;BME280;27078;46.428;6.256;2023-04-02T03:27:17;96114.47;;;4.33;100.00
41334;BME280;27078;46.428;6.256;2023-04-02T03:30:03;96109.25;;;4.33;100.00
41334;BME280;27078;46.428;6.256;2023-04-02T03:32:31;96104.75;;;4.35;100.00
41334;BME280;27078;46.428;6.256;2023-04-02T03:35:02;96107.44;;;4.34;100.00
41334;BME280;27078;46.428;6.256;2023-04-02T03:37:38;96111.53;;;4.38;100.00
41334;BME280;27078;46.428;6.256;2023-04-02T03:40:21;96108.09;;;4.37;100.00
41334;BME280;27078;46.428;6.256;2023-04-02T03:45:21;96110.06;;;4.34;100.00
41334;BME280;27078;46.428;6.256;2023-04-02T03:50:37;96103.38;;;4.29;100.00
41334;BME280;27078;46.428;6.256;2023-04-02T03:53:05;96106.00;;;4.29;100.00
41334;BME280;27078;46.428;6.256;2023-04-02T03:55:35;96107.03;;;4.27;100.00
41334;BME280;27078;46.428;6.256;2023-04-02T03:58:10;96107.69;;;4.31;100.00
41334;BME280;27078;46.428;6.256;2023-04-02T04:03:20;96109.53;;;4.41;100.00
41334;BME280;27078;46.428;6.256;2023-04-02T04:05:56;96105.16;;;4.42;100.00
41334;BME280;27078;46.428;6.256;2023-04-02T04:08:28;96108.50;;;4.44;100.00
41334;BME280;27078;46.428;6.256;2023-04-02T04:11:00;96105.03;;;4.43;100.00
41334;BME280;27078;46.428;6.256;2023-04-02T04:14:05;96105.88;;;4.44;100.00
41334;BME280;27078;46.428;6.256;2023-04-02T04:17:00;96110.19;;;4.45;100.00
41334;BME280;27078;46.428;6.256;2023-04-02T04:19:42;96105.69;;;4.47;100.00
41334;BME280;27078;46.428;6.256;2023-04-02T04:22:23;96112.78;;;4.45;100.00
41334;BME280;27078;46.428;6.256;2023-04-02T04:24:58;96111.84;;;4.46;100.00
41334;BME280;27078;46.428;6.256;2023-04-02T04:27:37;96120.31;;;4.49;100.00
41334;BME280;27078;46.428;6.256;2023-04-02T04:30:29;96115.38;;;4.58;100.00
41334;BME280;27078;46.428;6.256;2023-04-02T04:33:04;96121.69;;;4.55;100.00
41334;BME280;27078;46.428;6.256;2023-04-02T04:35:43;96121.03;;;4.52;100.00
41334;BME280;27078;46.428;6.256;2023-04-02T04:38:16;96112.56;;;4.48;100.00
41334;BME280;27078;46.428;6.256;2023-04-02T04:40:48;96116.88;;;4.49;100.00
41334;BME280;27078;46.428;6.256;2023-04-02T04:43:32;96126.38;;;4.50;100.00
41334;BME280;27078;46.428;6.256;2023-04-02T04:46:05;96123.03;;;4.48;100.00
41334;BME280;27078;46.428;6.256;2023-04-02T04:48:48;96129.00;;;4.50;100.00
41334;BME280;27078;46.428;6.256;2023-04-02T04:51:23;96127.09;;;4.52;100.00
41334;BME280;27078;46.428;6.256;2023-04-02T04:53:52;96130.44;;;4.54;100.00
41334;BME280;27078;46.428;6.256;2023-04-02T04:56:22;96131.19;;;4.56;100.00
41334;BME280;27078;46.428;6.256;2023-04-02T04:59:02;96125.44;;;4.51;100.00
41334;BME280;27078;46.428;6.256;2023-04-02T05:01:40;96134.31;;;4.48;100.00
41334;BME280;27078;46.428;6.256;2023-04-02T05:04:27;96136.09;;;4.48;100.00
41334;BME280;27078;46.428;6.256;2023-04-02T05:09:33;96130.25;;;4.44;100.00
41334;BME280;27078;46.428;6.256;2023-04-02T05:12:02;96136.66;;;4.53;100.00
41334;BME280;27078;46.428;6.256;2023-04-02T05:14:41;96141.66;;;4.56;100.00
41334;BME280;27078;46.428;6.256;2023-04-02T05:17:28;96145.00;;;4.58;100.00
41334;BME280;27078;46.428;6.256;2023-04-02T05:20:01;96155.13;;;4.63;100.00
41334;BME280;27078;46.428;6.256;2023-04-02T05:22:34;96147.19;;;4.64;100.00
41334;BME280;27078;46.428;6.256;2023-04-02T05:25:25;96159.31;;;4.65;100.00
41334;BME280;27078;46.428;6.256;2023-04-02T05:33:05;96163.91;;;4.75;100.00
41334;BME280;27078;46.428;6.256;2023-04-02T05:35:43;96159.72;;;4.85;100.00
41334;BME280;27078;46.428;6.256;2023-04-02T05:38:18;96171.66;;;4.89;100.00
41334;BME280;27078;46.428;6.256;2023-04-02T05:40:47;96164.28;;;4.94;100.00
41334;BME280;27078;46.428;6.256;2023-04-02T05:43:16;96163.88;;;5.00;100.00
41334;BME280;27078;46.428;6.256;2023-04-02T05:45:45;96160.81;;;5.06;100.00
41334;BME280;27078;46.428;6.256;2023-04-02T05:48:17;96165.63;;;5.13;100.00
41334;BME280;27078;46.428;6.256;2023-04-02T05:50:49;96167.16;;;5.15;100.00
41334;BME280;27078;46.428;6.256;2023-04-02T05:53:24;96169.25;;;5.23;100.00
41334;BME280;27078;46.428;6.256;2023-04-02T05:55:53;96165.97;;;5.32;100.00
41334;BME280;27078;46.428;6.256;2023-04-02T05:58:40;96175.03;;;5.39;100.00
41334;BME280;27078;46.428;6.256;2023-04-02T06:01:18;96174.97;;;5.52;100.00
41334;BME280;27078;46.428;6.256;2023-04-02T06:03:51;96175.63;;;5.67;100.00
41334;BME280;27078;46.428;6.256;2023-04-02T06:12:05;96185.38;;;6.13;100.00
41334;BME280;27078;46.428;6.256;2023-04-02T06:14:34;96181.34;;;6.20;100.00
41334;BME280;27078;46.428;6.256;2023-04-02T06:16:59;96176.84;;;6.34;100.00
41334;BME280;27078;46.428;6.256;2023-04-02T06:19:30;96179.09;;;6.38;100.00
41334;BME280;27078;46.428;6.256;2023-04-02T06:22:05;96185.53;;;6.34;100.00
41334;BME280;27078;46.428;6.256;2023-04-02T06:24:33;96190.44;;;6.39;100.00
41334;BME280;27078;46.428;6.256;2023-04-02T06:27:03;96193.91;;;6.39;100.00
41334;BME280;27078;46.428;6.256;2023-04-02T06:29:33;96194.47;;;6.31;100.00
41334;BME280;27078;46.428;6.256;2023-04-02T06:32:05;96200.19;;;6.25;100.00
41334;BME280;27078;46.428;6.256;2023-04-02T06:34:32;96195.78;;;6.26;100.00
41334;BME280;27078;46.428;6.256;2023-04-02T06:39:49;96205.97;;;6.53;100.00
41334;BME280;27078;46.428;6.256;2023-04-02T06:42:24;96208.13;;;6.59;100.00
41334;BME280;27078;46.428;6.256;2023-04-02T06:44:51;96205.75;;;6.67;100.00
41334;BME280;27078;46.428;6.256;2023-04-02T06:47:34;96208.72;;;6.63;100.00
41334;BME280;27078;46.428;6.256;2023-04-02T06:52:55;96217.44;;;6.75;100.00
41334;BME280;27078;46.428;6.256;2023-04-02T06:55:30;96221.38;;;6.80;100.00
41334;BME280;27078;46.428;6.256;2023-04-02T06:57:57;96224.72;;;6.82;100.00
41334;BME280;27078;46.428;6.256;2023-04-02T07:00:37;96219.97;;;6.99;100.00
41334;BME280;27078;46.428;6.256;2023-04-02T07:03:12;96224.84;;;7.14;100.00
41334;BME280;27078;46.428;6.256;2023-04-02T07:05:38;96224.50;;;7.30;100.00
41334;BME280;27078;46.428;6.256;2023-04-02T07:08:04;96223.34;;;7.55;100.00
41334;BME280;27078;46.428;6.256;2023-04-02T07:10:29;96223.41;;;7.77;100.00
41334;BME280;27078;46.428;6.256;2023-04-02T07:12:55;96224.44;;;7.97;100.00
41334;BME280;27078;46.428;6.256;2023-04-02T07:15:20;96226.47;;;7.93;100.00
41334;BME280;27078;46.428;6.256;2023-04-02T07:17:48;96224.13;;;8.11;100.00
41334;BME280;27078;46.428;6.256;2023-04-02T07:22:52;96231.13;;;8.54;100.00
41334;BME280;27078;46.428;6.256;2023-04-02T07:25:17;96236.00;;;8.59;100.00
41334;BME280;27078;46.428;6.256;2023-04-02T07:27:43;96230.22;;;8.44;100.00
41334;BME280;27078;46.428;6.256;2023-04-02T07:30:08;96237.06;;;8.35;100.00
41334;BME280;27078;46.428;6.256;2023-04-02T07:32:33;96233.19;;;8.39;100.00
41334;BME280;27078;46.428;6.256;2023-04-02T07:34:59;96238.59;;;8.38;100.00
41334;BME280;27078;46.428;6.256;2023-04-02T07:37:24;96242.50;;;8.22;100.00
41334;BME280;27078;46.428;6.256;2023-04-02T07:39:50;96246.03;;;8.32;100.00
41334;BME280;27078;46.428;6.256;2023-04-02T07:42:15;96242.44;;;8.33;100.00
41334;BME280;27078;46.428;6.256;2023-04-02T07:44:41;96253.66;;;8.35;100.00
41334;BME280;27078;46.428;6.256;2023-04-02T07:47:06;96249.00;;;8.39;100.00
41334;BME280;27078;46.428;6.256;2023-04-02T07:49:32;96259.91;;;8.34;100.00
41334;BME280;27078;46.428;6.256;2023-04-02T07:51:58;96256.31;;;8.35;100.00
41334;BME280;27078;46.428;6.256;2023-04-02T07:54:23;96260.28;;;8.30;100.00
41334;BME280;27078;46.428;6.256;2023-04-02T07:56:48;96267.69;;;8.36;100.00
41334;BME280;27078;46.428;6.256;2023-04-02T07:59:14;96263.53;;;8.22;100.00
41334;BME280;27078;46.428;6.256;2023-04-02T08:01:39;96268.63;;;8.35;100.00
41334;BME280;27078;46.428;6.256;2023-04-02T08:04:15;96268.91;;;8.32;100.00
41334;BME280;27078;46.428;6.256;2023-04-02T08:06:41;96266.38;;;8.30;100.00
41334;BME280;27078;46.428;6.256;2023-04-02T08:09:07;96264.38;;;8.23;100.00
41334;BME280;27078;46.428;6.256;2023-04-02T08:11:32;96271.38;;;8.33;100.00
41334;BME280;27078;46.428;6.256;2023-04-02T08:13:58;96275.81;;;8.33;100.00
41334;BME280;27078;46.428;6.256;2023-04-02T08:16:23;96274.72;;;8.47;100.00
41334;BME280;27078;46.428;6.256;2023-04-02T08:18:49;96276.84;;;8.53;100.00
41334;BME280;27078;46.428;6.256;2023-04-02T08:21:15;96271.59;;;8.53;100.00
41334;BME280;27078;46.428;6.256;2023-04-02T08:23:40;96278.63;;;8.52;100.00
41334;BME280;27078;46.428;6.256;2023-04-02T08:26:07;96270.81;;;8.62;100.00
41334;BME280;27078;46.428;6.256;2023-04-02T08:28:33;96278.63;;;8.73;100.00
41334;BME280;27078;46.428;6.256;2023-04-02T08:30:58;96272.72;;;9.02;100.00
41334;BME280;27078;46.428;6.256;2023-04-02T08:33:24;96275.38;;;9.12;100.00
41334;BME280;27078;46.428;6.256;2023-04-02T08:35:50;96276.38;;;9.51;100.00
41334;BME280;27078;46.428;6.256;2023-04-02T08:38:17;96279.06;;;9.71;100.00
41334;BME280;27078;46.428;6.256;2023-04-02T08:40:45;96279.38;;;9.87;100.00
41334;BME280;27078;46.428;6.256;2023-04-02T08:48:43;96286.38;;;10.27;100.00
41334;BME280;27078;46.428;6.256;2023-04-02T08:51:22;96285.03;;;10.52;100.00
41334;BME280;27078;46.428;6.256;2023-04-02T08:53:48;96286.56;;;10.55;100.00
41334;BME280;27078;46.428;6.256;2023-04-02T08:56:18;96289.19;;;10.55;100.00
41334;BME280;27078;46.428;6.256;2023-04-02T08:59:01;96289.75;;;10.58;100.00
41334;BME280;27078;46.428;6.256;2023-04-02T09:04:22;96295.25;;;10.26;100.00
41334;BME280;27078;46.428;6.256;2023-04-02T09:06:51;96290.78;;;10.07;100.00
41334;BME280;27078;46.428;6.256;2023-04-02T09:09:18;96299.13;;;10.03;100.00
41334;BME280;27078;46.428;6.256;2023-04-02T09:11:59;96295.47;;;9.74;100.00
41334;BME280;27078;46.428;6.256;2023-04-02T09:17:27;96301.09;;;9.60;100.00
41334;BME280;27078;46.428;6.256;2023-04-02T09:20:15;96301.56;;;9.75;100.00
41334;BME280;27078;46.428;6.256;2023-04-02T09:22:44;96307.03;;;9.93;100.00
41334;BME280;27078;46.428;6.256;2023-04-02T09:25:19;96300.91;;;9.83;100.00
41334;BME280;27078;46.428;6.256;2023-04-02T09:27:50;96314.22;;;9.81;100.00
41334;BME280;27078;46.428;6.256;2023-04-02T09:30:26;96305.44;;;9.71;100.00
41334;BME280;27078;46.428;6.256;2023-04-02T09:33:02;96315.97;;;9.71;100.00
41334;BME280;27078;46.428;6.256;2023-04-02T09:35:33;96316.78;;;9.62;100.00
41334;BME280;27078;46.428;6.256;2023-04-02T09:38:23;96317.63;;;9.62;100.00
41334;BME280;27078;46.428;6.256;2023-04-02T09:43:19;96317.78;;;9.30;100.00
41334;BME280;27078;46.428;6.256;2023-04-02T09:46:05;96326.78;;;9.27;100.00
41334;BME280;27078;46.428;6.256;2023-04-02T09:48:42;96331.03;;;9.19;100.00
41334;BME280;27078;46.428;6.256;2023-04-02T09:53:36;96335.06;;;9.23;100.00
41334;BME280;27078;46.428;6.256;2023-04-02T09:56:23;96339.88;;;9.38;100.00
41334;BME280;27078;46.428;6.256;2023-04-02T10:04:16;96341.06;;;9.55;100.00
41334;BME280;27078;46.428;6.256;2023-04-02T10:06:50;96348.69;;;9.58;100.00
41334;BME280;27078;46.428;6.256;2023-04-02T10:09:20;96350.38;;;9.69;100.00
41334;BME280;27078;46.428;6.256;2023-04-02T10:11:50;96342.84;;;9.95;100.00
41334;BME280;27078;46.428;6.256;2023-04-02T10:14:23;96357.50;;;10.19;100.00
41334;BME280;27078;46.428;6.256;2023-04-02T10:16:52;96358.91;;;10.23;100.00
41334;BME280;27078;46.428;6.256;2023-04-02T10:22:00;96360.72;;;10.32;100.00
41334;BME280;27078;46.428;6.256;2023-04-02T10:24:27;96358.38;;;10.39;100.00
41334;BME280;27078;46.428;6.256;2023-04-02T10:27:13;96363.41;;;10.42;100.00
41334;BME280;27078;46.428;6.256;2023-04-02T10:32:39;96367.56;;;10.45;100.00
41334;BME280;27078;46.428;6.256;2023-04-02T10:40:22;96372.19;;;10.02;100.00
41334;BME280;27078;46.428;6.256;2023-04-02T10:45:45;96371.63;;;9.68;100.00
41334;BME280;27078;46.428;6.256;2023-04-02T10:48:32;96376.91;;;9.68;100.00
41334;BME280;27078;46.428;6.256;2023-04-02T10:56:52;96381.44;;;9.87;100.00
41334;BME280;27078;46.428;6.256;2023-04-02T10:59:24;96378.97;;;9.95;100.00
41334;BME280;27078;46.428;6.256;2023-04-02T11:01:53;96386.59;;;9.98;100.00
41334;BME280;27078;46.428;6.256;2023-04-02T11:04:29;96388.50;;;9.86;100.00
41334;BME280;27078;46.428;6.256;2023-04-02T11:07:00;96390.97;;;9.78;100.00
41334;BME280;27078;46.428;6.256;2023-04-02T11:09:31;96390.53;;;9.73;100.00
41334;BME280;27078;46.428;6.256;2023-04-02T11:11:59;96387.00;;;9.63;100.00
41334;BME280;27078;46.428;6.256;2023-04-02T11:14:30;96388.19;;;9.79;100.00
41334;BME280;27078;46.428;6.256;2023-04-02T11:16:58;96389.66;;;9.93;100.00
41334;BME280;27078;46.428;6.256;2023-04-02T11:19:30;96388.81;;;9.93;100.00
41334;BME280;27078;46.428;6.256;2023-04-02T11:29:48;96389.75;;;9.51;100.00
41334;BME280;27078;46.428;6.256;2023-04-02T11:37:40;96397.16;;;9.36;100.00
41334;BME280;27078;46.428;6.256;2023-04-02T11:55:29;96410.84;;;9.51;100.00
41334;BME280;27078;46.428;6.256;2023-04-02T12:00:59;96419.59;;;9.83;100.00
41334;BME280;27078;46.428;6.256;2023-04-02T12:09:29;96433.88;;;10.11;100.00
41334;BME280;27078;46.428;6.256;2023-04-02T12:11:59;96431.22;;;10.11;100.00
41334;BME280;27078;46.428;6.256;2023-04-02T12:14:44;96431.81;;;10.14;100.00
41334;BME280;27078;46.428;6.256;2023-04-02T12:17:24;96433.03;;;10.10;100.00
41334;BME280;27078;46.428;6.256;2023-04-02T12:19:54;96432.59;;;10.05;100.00
41334;BME280;27078;46.428;6.256;2023-04-02T12:22:25;96430.16;;;9.83;100.00
41334;BME280;27078;46.428;6.256;2023-04-02T12:24:54;96435.63;;;9.70;100.00
41334;BME280;27078;46.428;6.256;2023-04-02T12:27:24;96430.56;;;9.78;100.00
41334;BME280;27078;46.428;6.256;2023-04-02T12:29:52;96424.56;;;9.76;100.00
41334;BME280;27078;46.428;6.256;2023-04-02T12:32:24;96432.31;;;9.77;100.00
41334;BME280;27078;46.428;6.256;2023-04-02T12:34:51;96430.56;;;9.78;100.00
41334;BME280;27078;46.428;6.256;2023-04-02T12:37:26;96432.81;;;9.92;100.00
41334;BME280;27078;46.428;6.256;2023-04-02T12:40:15;96440.47;;;9.95;100.00
41334;BME280;27078;46.428;6.256;2023-04-02T12:42:40;96438.84;;;10.04;100.00
41334;BME280;27078;46.428;6.256;2023-04-02T12:45:19;96436.63;;;10.09;100.00
41334;BME280;27078;46.428;6.256;2023-04-02T12:47:45;96439.19;;;10.21;100.00
41334;BME280;27078;46.428;6.256;2023-04-02T12:50:14;96444.06;;;10.25;100.00
41334;BME280;27078;46.428;6.256;2023-04-02T12:52:44;96446.47;;;10.38;100.00
41334;BME280;27078;46.428;6.256;2023-04-02T12:55:20;96442.72;;;10.41;100.00
41334;BME280;27078;46.428;6.256;2023-04-02T12:57:46;96441.31;;;10.36;100.00
41334;BME280;27078;46.428;6.256;2023-04-02T13:02:48;96446.13;;;10.22;100.00
41334;BME280;27078;46.428;6.256;2023-04-02T13:05:32;96449.69;;;10.11;100.00
41334;BME280;27078;46.428;6.256;2023-04-02T13:07:58;96446.94;;;10.12;100.00
41334;BME280;27078;46.428;6.256;2023-04-02T13:10:25;96451.75;;;10.07;100.00
41334;BME280;27078;46.428;6.256;2023-04-02T13:12:56;96453.84;;;10.04;100.00
41334;BME280;27078;46.428;6.256;2023-04-02T13:15:26;96449.31;;;9.85;100.00
41334;BME280;27078;46.428;6.256;2023-04-02T13:18:05;96452.06;;;9.83;100.00
41334;BME280;27078;46.428;6.256;2023-04-02T13:20:37;96449.88;;;9.88;100.00
41334;BME280;27078;46.428;6.256;2023-04-02T13:25:53;96452.97;;;9.93;100.00
41334;BME280;27078;46.428;6.256;2023-04-02T13:28:20;96455.34;;;9.75;100.00
41334;BME280;27078;46.428;6.256;2023-04-02T13:30:46;96455.94;;;9.79;100.00
41334;BME280;27078;46.428;6.256;2023-04-02T13:33:13;96452.91;;;9.84;100.00
41334;BME280;27078;46.428;6.256;2023-04-02T13:35:39;96453.75;;;9.84;100.00
41334;BME280;27078;46.428;6.256;2023-04-02T13:38:04;96455.94;;;9.79;100.00
41334;BME280;27078;46.428;6.256;2023-04-02T13:40:31;96461.50;;;9.76;100.00
41334;BME280;27078;46.428;6.256;2023-04-02T13:42:57;96456.97;;;9.67;100.00
41334;BME280;27078;46.428;6.256;2023-04-02T13:45:25;96453.31;;;9.79;100.00
41334;BME280;27078;46.428;6.256;2023-04-02T13:47:52;96452.34;;;9.80;100.00
41334;BME280;27078;46.428;6.256;2023-04-02T13:50:20;96455.13;;;9.88;100.00
41334;BME280;27078;46.428;6.256;2023-04-02T13:52:47;96449.84;;;9.78;100.00
41334;BME280;27078;46.428;6.256;2023-04-02T13:55:14;96458.97;;;9.74;100.00
41334;BME280;27078;46.428;6.256;2023-04-02T13:57:42;96460.84;;;9.63;100.00
41334;BME280;27078;46.428;6.256;2023-04-02T14:00:08;96452.50;;;9.57;100.00
41334;BME280;27078;46.428;6.256;2023-04-02T14:02:34;96455.97;;;9.58;100.00
41334;BME280;27078;46.428;6.256;2023-04-02T14:08:06;96463.84;;;9.48;100.00
41334;BME280;27078;46.428;6.256;2023-04-02T14:13:54;96467.19;;;9.50;100.00
41334;BME280;27078;46.428;6.256;2023-04-02T14:16:36;96459.25;;;9.50;100.00
41334;BME280;27078;46.428;6.256;2023-04-02T14:19:47;96462.78;;;9.40;100.00
41334;BME280;27078;46.428;6.256;2023-04-02T14:22:23;96466.69;;;9.24;100.00
41334;BME280;27078;46.428;6.256;2023-04-02T14:28:18;96466.66;;;9.14;100.00
41334;BME280;27078;46.428;6.256;2023-04-02T14:31:13;96465.44;;;9.19;100.00
41334;BME280;27078;46.428;6.256;2023-04-02T14:39:31;96476.09;;;9.17;100.00
41334;BME280;27078;46.428;6.256;2023-04-02T14:42:02;96472.97;;;9.12;100.00
41334;BME280;27078;46.428;6.256;2023-04-02T14:44:35;96474.00;;;9.00;100.00
41334;BME280;27078;46.428;6.256;2023-04-02T14:47:18;96479.00;;;9.03;100.00
41334;BME280;27078;46.428;6.256;2023-04-02T14:49:47;96477.22;;;9.03;100.00
41334;BME280;27078;46.428;6.256;2023-04-02T14:52:19;96483.19;;;9.05;100.00
41334;BME280;27078;46.428;6.256;2023-04-02T14:54:58;96482.63;;;9.02;100.00
41334;BME280;27078;46.428;6.256;2023-04-02T14:57:29;96480.00;;;8.90;100.00
41334;BME280;27078;46.428;6.256;2023-04-02T15:00:21;96483.69;;;8.99;100.00
41334;BME280;27078;46.428;6.256;2023-04-02T15:02:57;96481.69;;;8.91;100.00
41334;BME280;27078;46.428;6.256;2023-04-02T15:05:46;96478.59;;;8.86;100.00
41334;BME280;27078;46.428;6.256;2023-04-02T15:10:47;96480.59;;;8.94;100.00
41334;BME280;27078;46.428;6.256;2023-04-02T15:13:20;96480.00;;;9.02;100.00
41334;BME280;27078;46.428;6.256;2023-04-02T15:16:14;96486.59;;;8.96;100.00
41334;BME280;27078;46.428;6.256;2023-04-02T15:18:43;96486.81;;;9.04;100.00
41334;BME280;27078;46.428;6.256;2023-04-02T15:31:27;96489.28;;;9.06;100.00
41334;BME280;27078;46.428;6.256;2023-04-02T15:37:06;96496.66;;;8.91;100.00
41334;BME280;27078;46.428;6.256;2023-04-02T15:39:58;96494.88;;;8.91;100.00
41334;BME280;27078;46.428;6.256;2023-04-02T15:42:29;96491.63;;;8.88;100.00
41334;BME280;27078;46.428;6.256;2023-04-02T15:48:14;96495.47;;;8.84;100.00
41334;BME280;27078;46.428;6.256;2023-04-02T16:09:50;96500.41;;;8.77;100.00
41334;BME280;27078;46.428;6.256;2023-04-02T16:12:18;96506.50;;;8.77;100.00
41334;BME280;27078;46.428;6.256;2023-04-02T16:14:46;96507.34;;;8.78;100.00
41334;BME280;27078;46.428;6.256;2023-04-02T16:17:20;96506.28;;;8.69;100.00
41334;BME280;27078;46.428;6.256;2023-04-02T16:19:52;96507.25;;;8.68;100.00
41334;BME280;27078;46.428;6.256;2023-04-02T16:22:26;96510.47;;;8.72;100.00
41334;BME280;27078;46.428;6.256;2023-04-02T16:25:14;96514.66;;;8.74;100.00
41334;BME280;27078;46.428;6.256;2023-04-02T16:27:44;96521.97;;;8.71;100.00
41334;BME280;27078;46.428;6.256;2023-04-02T16:49:39;96538.25;;;8.42;100.00
41334;BME280;27078;46.428;6.256;2023-04-02T16:52:25;96536.44;;;8.31;100.00
41334;BME280;27078;46.428;6.256;2023-04-02T17:00:34;96549.88;;;8.17;100.00
41334;BME280;27078;46.428;6.256;2023-04-02T17:05:54;96553.78;;;8.00;100.00
41334;BME280;27078;46.428;6.256;2023-04-02T17:08:24;96552.09;;;7.88;100.00
41334;BME280;27078;46.428;6.256;2023-04-02T17:10:56;96555.19;;;7.82;100.00
41334;BME280;27078;46.428;6.256;2023-04-02T17:13:37;96557.19;;;7.78;100.00
41334;BME280;27078;46.428;6.256;2023-04-02T17:18:33;96562.19;;;7.70;100.00
41334;BME280;27078;46.428;6.256;2023-04-02T17:21:05;96562.19;;;7.70;100.00
41334;BME280;27078;46.428;6.256;2023-04-02T17:23:39;96563.06;;;7.70;100.00
41334;BME280;27078;46.428;6.256;2023-04-02T17:26:08;96574.88;;;7.65;100.00